Time;durP1;ratioP1;P1;durP2;ratioP2;P2;SDS_P1;SDS_P2;PMS_P1;PMS_P2;Temp;Humidity;BMP_temperature;BMP_pressure;BME280_temperature;BME280_humidity;BME280_pressure;Samples;Min_cycle;Max_cycle;Signal;HPM_P1;HPM_P2
2022/07/30 00:00:04;;;;;;;;;;;19.50;91.20;;;;;;5058093;28;20009;-73
2022/07/30 00:02:31;;;;;;;;;;;19.50;91.20;;;;;;5060264;28;19932;-73
2022/07/30 00:04:59;;;;;;;;;;;19.50;91.30;;;;;;5061640;28;19932;-75
2022/07/30 00:07:26;;;;;;;;;;;19.40;91.20;;;;;;5052983;28;19936;-75
2022/07/30 00:09:53;;;;;;;;;;;19.40;91.20;;;;;;5046723;28;19951;-74
2022/07/30 00:12:20;;;;;;;;;;;19.40;91.20;;;;;;5058691;28;19940;-74
2022/07/30 00:14:47;;;;;;;;;;;19.40;91.20;;;;;;5054180;28;19941;-73
2022/07/30 00:17:14;;;;;;;;;;;19.40;91.20;;;;;;5033984;28;19933;-73
2022/07/30 00:19:40;;;;;;;;;;;19.40;91.20;;;;;;5038338;28;20287;-73
2022/07/30 00:22:09;;;;;;;;;;;19.40;91.20;;;;;;5038634;28;20032;-74
2022/07/30 00:24:35;;;;;;;;;;;19.40;91.20;;;;;;5035228;28;20016;-73
2022/07/30 00:27:02;;;;;;;;;;;19.40;91.10;;;;;;5021966;28;20022;-74
2022/07/30 00:29:29;;;;;;;;;;;19.40;91.20;;;;;;5023379;28;19967;-74
2022/07/30 00:31:56;;;;;;;;;;;19.30;91.10;;;;;;5031241;28;19935;-73
2022/07/30 00:34:23;;;;;;;;;;;19.30;91.20;;;;;;5065963;28;19924;-73
2022/07/30 00:36:51;;;;;;;;;;;19.30;91.20;;;;;;5041983;28;20525;-75
2022/07/30 00:39:19;;;;;;;;;;;19.30;91.20;;;;;;5050335;28;19936;-74
2022/07/30 00:41:53;;;;;;;;;;;19.30;91.10;;;;;;5057511;28;20014;-73
2022/07/30 00:44:20;;;;;;;;;;;19.30;91.10;;;;;;5051728;28;19985;-73
2022/07/30 00:46:47;;;;;;;;;;;19.30;91.00;;;;;;5025514;28;20019;-74
2022/07/30 00:49:15;;;;;;;;;;;19.20;91.00;;;;;;5018795;28;19929;-76
2022/07/30 00:51:42;;;;;;;;;;;19.20;91.00;;;;;;5046373;28;19931;-74
2022/07/30 00:54:08;;;;;;;;;;;19.20;90.90;;;;;;5076803;28;20026;-74
2022/07/30 00:56:37;;;;;;;;;;;19.20;90.90;;;;;;5044165;28;19935;-74
2022/07/30 00:59:04;;;;;;;;;;;19.20;91.00;;;;;;5043030;28;20714;-74
2022/07/30 01:01:31;;;;;;;;;;;19.20;90.90;;;;;;5027292;28;21457;-73
2022/07/30 01:03:58;;;;;;;;;;;19.20;90.90;;;;;;5044311;28;19946;-73
2022/07/30 01:06:25;;;;;;;;;;;19.10;90.90;;;;;;5044809;28;19937;-73
2022/07/30 01:08:53;;;;;;;;;;;19.10;90.90;;;;;;5019854;28;20489;-74
2022/07/30 01:11:19;;;;;;;;;;;19.10;91.00;;;;;;5037784;28;20047;-74
2022/07/30 01:13:48;;;;;;;;;;;19.10;90.90;;;;;;5048458;28;19937;-75
2022/07/30 01:16:15;;;;;;;;;;;19.10;90.90;;;;;;5043514;28;20015;-73
2022/07/30 01:21:30;;;;;;;;;;;19.00;90.80;;;;;;5034403;28;20340;-73
2022/07/30 01:23:58;;;;;;;;;;;19.00;90.70;;;;;;5026105;28;20504;-74
2022/07/30 01:26:30;;;;;;;;;;;19.00;90.70;;;;;;5026027;28;20201;-73
2022/07/30 01:28:57;;;;;;;;;;;19.00;90.50;;;;;;5030982;28;19967;-74
2022/07/30 01:31:25;;;;;;;;;;;18.90;90.50;;;;;;5040966;28;19982;-74
2022/07/30 01:33:52;;;;;;;;;;;18.80;90.60;;;;;;5056728;28;19931;-74
2022/07/30 01:36:22;;;;;;;;;;;18.80;90.60;;;;;;5025543;28;19969;-74
2022/07/30 01:38:49;;;;;;;;;;;18.70;90.60;;;;;;5044396;28;19924;-75
2022/07/30 01:41:18;;;;;;;;;;;18.70;90.60;;;;;;5030992;28;19928;-75
2022/07/30 01:43:46;;;;;;;;;;;18.60;90.70;;;;;;5055267;28;20393;-75
2022/07/30 01:46:14;;;;;;;;;;;18.60;90.80;;;;;;5045617;28;19924;-75
2022/07/30 01:48:43;;;;;;;;;;;18.60;90.90;;;;;;5050527;28;20391;-73
2022/07/30 01:51:12;;;;;;;;;;;18.60;90.90;;;;;;5032032;28;20110;-74
2022/07/30 01:53:42;;;;;;;;;;;18.60;91.00;;;;;;5059941;28;19935;-73
2022/07/30 01:56:11;;;;;;;;;;;18.60;91.00;;;;;;5047167;28;19931;-75
2022/07/30 01:58:40;;;;;;;;;;;18.50;90.90;;;;;;5036316;28;19924;-74
2022/07/30 02:01:19;;;;;;;;;;;18.50;90.90;;;;;;5045216;28;19930;-74
2022/07/30 02:03:46;;;;;;;;;;;18.50;91.10;;;;;;5052399;28;20342;-73
2022/07/30 02:06:14;;;;;;;;;;;18.50;91.10;;;;;;5042962;22;20028;-71
2022/07/30 02:08:45;;;;;;;;;;;18.50;91.00;;;;;;5054756;28;20346;-73
2022/07/30 02:11:12;;;;;;;;;;;18.40;91.00;;;;;;5064020;28;19926;-73
2022/07/30 02:13:42;;;;;;;;;;;18.40;91.10;;;;;;5069460;28;19933;-74
2022/07/30 02:16:13;;;;;;;;;;;18.40;91.10;;;;;;5028230;28;20318;-75
2022/07/30 02:18:48;;;;;;;;;;;18.40;91.10;;;;;;5059161;28;20363;-75
2022/07/30 02:21:17;;;;;;;;;;;18.40;91.10;;;;;;5068546;28;19924;-74
2022/07/30 02:23:45;;;;;;;;;;;18.30;91.00;;;;;;5062536;28;19986;-74
2022/07/30 02:26:14;;;;;;;;;;;18.30;90.80;;;;;;5059149;28;19929;-75
2022/07/30 02:28:44;;;;;;;;;;;18.30;90.90;;;;;;5060268;28;19933;-74
2022/07/30 02:31:11;;;;;;;;;;;18.30;90.90;;;;;;5066064;28;19939;-74
2022/07/30 02:33:40;;;;;;;;;;;18.30;91.10;;;;;;5050183;28;19924;-74
2022/07/30 02:36:09;;;;;;;;;;;18.20;90.90;;;;;;5059660;28;19999;-72
2022/07/30 02:38:36;;;;;;;;;;;18.30;91.00;;;;;;5066688;28;19928;-73
2022/07/30 02:41:04;;;;;;;;;;;18.20;91.00;;;;;;5069940;28;19933;-72
2022/07/30 02:43:31;;;;;;;;;;;18.20;91.10;;;;;;5061902;28;19937;-73
2022/07/30 02:45:59;;;;;;;;;;;18.20;91.10;;;;;;5054995;28;19932;-72
2022/07/30 02:48:40;;;;;;;;;;;18.20;91.20;;;;;;5042271;28;19928;-72
2022/07/30 02:51:09;;;;;;;;;;;18.20;91.10;;;;;;5061131;28;19986;-72
2022/07/30 02:53:37;;;;;;;;;;;18.20;91.10;;;;;;5067103;28;20413;-73
2022/07/30 02:56:05;;;;;;;;;;;18.10;91.00;;;;;;5067604;28;19952;-73
2022/07/30 02:58:32;;;;;;;;;;;18.10;91.00;;;;;;5062676;28;20039;-73
2022/07/30 03:01:00;;;;;;;;;;;18.10;91.00;;;;;;5044127;28;20016;-73
2022/07/30 03:03:28;;;;;;;;;;;18.10;91.00;;;;;;5060658;28;19963;-73
2022/07/30 03:05:56;;;;;;;;;;;18.10;91.00;;;;;;5063554;28;20327;-73
2022/07/30 03:08:26;;;;;;;;;;;18.10;91.20;;;;;;5068478;28;19924;-73
2022/07/30 03:10:54;;;;;;;;;;;18.10;90.70;;;;;;5065276;28;19924;-73
2022/07/30 03:13:24;;;;;;;;;;;18.10;90.90;;;;;;5066615;28;19924;-73
2022/07/30 03:15:51;;;;;;;;;;;18.00;90.90;;;;;;5069466;28;20266;-73
2022/07/30 03:18:21;;;;;;;;;;;18.00;90.90;;;;;;5061673;28;19960;-72
2022/07/30 03:20:52;;;;;;;;;;;18.00;90.80;;;;;;5055789;28;19924;-73
2022/07/30 03:23:20;;;;;;;;;;;18.00;90.90;;;;;;5057306;28;19928;-73
2022/07/30 03:25:51;;;;;;;;;;;18.00;91.00;;;;;;5058256;28;19928;-73
2022/07/30 03:28:19;;;;;;;;;;;18.00;90.90;;;;;;5066839;28;19925;-73
2022/07/30 03:30:46;;;;;;;;;;;18.00;90.90;;;;;;5052964;28;19932;-73
2022/07/30 03:33:14;;;;;;;;;;;18.00;91.10;;;;;;5062388;28;19938;-73
2022/07/30 03:35:42;;;;;;;;;;;18.00;91.30;;;;;;5049219;28;20303;-73
2022/07/30 03:38:10;;;;;;;;;;;18.00;91.10;;;;;;5065511;28;19936;-73
2022/07/30 03:40:37;;;;;;;;;;;18.00;91.00;;;;;;5063343;28;19932;-72
2022/07/30 03:43:07;;;;;;;;;;;18.00;91.00;;;;;;5064889;28;20011;-72
2022/07/30 03:45:34;;;;;;;;;;;17.90;91.00;;;;;;5066357;28;19925;-73
2022/07/30 03:48:07;;;;;;;;;;;17.90;91.20;;;;;;5058845;28;19928;-72
2022/07/30 03:50:35;;;;;;;;;;;17.90;91.20;;;;;;5060102;28;20011;-72
2022/07/30 03:53:04;;;;;;;;;;;17.90;91.30;;;;;;5050152;28;19939;-72
2022/07/30 03:55:32;;;;;;;;;;;17.90;91.30;;;;;;5034992;28;20343;-72
2022/07/30 03:58:32;;;;;;;;;;;17.90;91.30;;;;;;5064512;28;19936;-71
2022/07/30 04:00:59;;;;;;;;;;;17.90;91.40;;;;;;5049878;28;19939;-72
2022/07/30 04:03:27;;;;;;;;;;;17.80;91.40;;;;;;5068126;28;19928;-73
2022/07/30 04:05:58;;;;;;;;;;;17.90;91.40;;;;;;5058946;28;19974;-73
2022/07/30 04:08:27;;;;;;;;;;;17.80;91.50;;;;;;5071981;28;19924;-73
2022/07/30 04:10:54;;;;;;;;;;;17.80;91.50;;;;;;5047986;28;19924;-73
2022/07/30 04:13:45;;;;;;;;;;;17.80;91.60;;;;;;5063516;28;19928;-72
2022/07/30 04:16:14;;;;;;;;;;;17.70;91.70;;;;;;5052336;28;19936;-73
2022/07/30 04:18:44;;;;;;;;;;;17.70;91.70;;;;;;5057028;28;19929;-73
2022/07/30 04:21:13;;;;;;;;;;;17.70;91.70;;;;;;5049349;28;19954;-73
2022/07/30 04:23:40;;;;;;;;;;;17.70;91.80;;;;;;5066556;28;20014;-73
2022/07/30 04:26:08;;;;;;;;;;;17.70;91.80;;;;;;5052217;28;20065;-73
2022/07/30 04:28:35;;;;;;;;;;;;;;;;;;5058974;28;19933;-72
2022/07/30 04:31:04;;;;;;;;;;;17.60;91.70;;;;;;5045699;28;19931;-72
2022/07/30 04:33:31;;;;;;;;;;;17.60;91.80;;;;;;5045475;28;20014;-72
2022/07/30 04:36:07;;;;;;;;;;;17.60;92.00;;;;;;5048446;28;19936;-73
2022/07/30 04:38:35;;;;;;;;;;;17.60;92.00;;;;;;5052426;28;19924;-72
2022/07/30 04:41:02;;;;;;;;;;;17.60;92.10;;;;;;5047041;28;20227;-72
2022/07/30 04:43:37;;;;;;;;;;;17.50;92.00;;;;;;5023477;28;19940;-73
2022/07/30 04:46:06;;;;;;;;;;;17.50;92.20;;;;;;5038013;28;19943;-72
2022/07/30 04:48:32;;;;;;;;;;;17.50;92.20;;;;;;5057372;28;19928;-72
2022/07/30 04:51:00;;;;;;;;;;;17.50;92.20;;;;;;5053654;28;20353;-73
2022/07/30 04:53:29;;;;;;;;;;;17.50;92.20;;;;;;5038651;28;20382;-72
2022/07/30 04:56:00;;;;;;;;;;;17.50;92.40;;;;;;5042541;28;19949;-73
2022/07/30 04:58:29;;;;;;;;;;;17.40;92.30;;;;;;5055365;28;19924;-72
2022/07/30 05:00:57;;;;;;;;;;;17.40;92.40;;;;;;5037947;28;20462;-73
2022/07/30 05:03:31;;;;;;;;;;;17.40;92.40;;;;;;5045617;28;19928;-73
2022/07/30 05:05:58;;;;;;;;;;;17.40;92.40;;;;;;5051377;28;19928;-73
2022/07/30 05:08:29;;;;;;;;;;;17.40;92.40;;;;;;5050960;28;19928;-72
2022/07/30 05:10:56;;;;;;;;;;;17.40;92.50;;;;;;5058959;28;19932;-73
2022/07/30 05:13:23;;;;;;;;;;;17.40;92.40;;;;;;5066690;28;19927;-72
2022/07/30 05:15:50;;;;;;;;;;;17.40;92.40;;;;;;5069553;28;19932;-73
2022/07/30 05:18:19;;;;;;;;;;;17.40;92.50;;;;;;5050273;28;19985;-73
2022/07/30 05:20:48;;;;;;;;;;;17.40;92.50;;;;;;5067114;28;20532;-73
2022/07/30 05:23:24;;;;;;;;;;;17.40;92.50;;;;;;5055653;28;20015;-73
2022/07/30 05:26:04;;;;;;;;;;;17.40;92.50;;;;;;5060946;28;19932;-73
2022/07/30 05:28:37;;;;;;;;;;;17.30;92.50;;;;;;5043884;28;19924;-73
2022/07/30 05:31:07;;;;;;;;;;;17.40;92.60;;;;;;5054337;28;20405;-72
2022/07/30 05:33:35;;;;;;;;;;;17.40;92.60;;;;;;5057431;28;19928;-72
2022/07/30 05:36:04;;;;;;;;;;;17.40;92.70;;;;;;5041434;28;19928;-72
2022/07/30 05:38:32;;;;;;;;;;;17.30;92.70;;;;;;5058951;28;19928;-72
2022/07/30 05:41:26;;;;;;;;;;;17.40;92.80;;;;;;5064692;28;19964;-73
2022/07/30 05:44:17;;;;;;;;;;;17.40;92.90;;;;;;5055555;28;19933;-72
2022/07/30 05:46:44;;;;;;;;;;;17.40;92.90;;;;;;5034334;28;19933;-72
2022/07/30 05:49:11;;;;;;;;;;;17.40;92.90;;;;;;5068978;28;19978;-75
2022/07/30 05:51:39;;;;;;;;;;;17.40;92.90;;;;;;5039026;28;20386;-72
2022/07/30 05:54:06;;;;;;;;;;;17.40;92.90;;;;;;5047858;28;19939;-73
2022/07/30 05:56:36;;;;;;;;;;;17.40;92.90;;;;;;5042945;28;19932;-72
2022/07/30 05:59:19;;;;;;;;;;;17.40;92.90;;;;;;5036909;28;19967;-72
2022/07/30 06:02:05;;;;;;;;;;;17.40;92.90;;;;;;5054004;28;21062;-73
2022/07/30 06:05:01;;;;;;;;;;;17.50;92.90;;;;;;5039942;28;19929;-73
2022/07/30 06:07:30;;;;;;;;;;;17.50;92.80;;;;;;5046059;28;20323;-73
2022/07/30 06:10:00;;;;;;;;;;;17.50;92.80;;;;;;5061690;28;20144;-73
2022/07/30 06:12:28;;;;;;;;;;;17.50;92.80;;;;;;5054383;28;19929;-73
2022/07/30 06:14:55;;;;;;;;;;;17.50;92.80;;;;;;5066432;28;19955;-73
2022/07/30 06:17:27;;;;;;;;;;;17.60;92.80;;;;;;5061478;28;19928;-73
2022/07/30 06:20:16;;;;;;;;;;;17.60;92.70;;;;;;5054255;28;19932;-73
2022/07/30 06:22:54;;;;;;;;;;;17.70;92.40;;;;;;5059167;28;20011;-72
2022/07/30 06:25:32;;;;;;;;;;;17.70;92.30;;;;;;5044742;28;20405;-73
2022/07/30 06:28:00;;;;;;;;;;;17.70;92.30;;;;;;5057917;28;19979;-73
2022/07/30 06:30:29;;;;;;;;;;;17.80;92.30;;;;;;5052046;28;19924;-73
2022/07/30 06:32:55;;;;;;;;;;;17.80;92.30;;;;;;5061866;28;19990;-74
2022/07/30 06:35:23;;;;;;;;;;;17.80;92.30;;;;;;5066361;28;19978;-72
2022/07/30 06:37:50;;;;;;;;;;;17.80;92.30;;;;;;5042841;28;19933;-74
2022/07/30 06:40:21;;;;;;;;;;;17.80;92.20;;;;;;5056507;28;19924;-73
2022/07/30 06:43:15;;;;;;;;;;;17.90;92.30;;;;;;5032902;28;21151;-73
2022/07/30 06:45:59;;;;;;;;;;;17.90;92.30;;;;;;5054940;28;21650;-73
2022/07/30 06:48:34;;;;;;;;;;;17.90;92.30;;;;;;5064046;28;20300;-73
2022/07/30 06:51:04;;;;;;;;;;;17.90;92.30;;;;;;5054085;28;19993;-73
2022/07/30 06:53:30;;;;;;;;;;;17.90;92.30;;;;;;5051346;28;19932;-73
2022/07/30 06:56:15;;;;;;;;;;;17.90;92.50;;;;;;5054493;28;20417;-73
2022/07/30 06:58:47;;;;;;;;;;;17.90;92.60;;;;;;5050080;28;19939;-74
2022/07/30 07:01:33;;;;;;;;;;;17.90;92.60;;;;;;5060539;28;19951;-73
2022/07/30 07:04:00;;;;;;;;;;;17.90;92.70;;;;;;5043051;28;20011;-72
2022/07/30 07:06:27;;;;;;;;;;;17.90;92.70;;;;;;5044488;28;19936;-73
2022/07/30 07:08:55;;;;;;;;;;;18.00;92.70;;;;;;5060045;28;19928;-73
2022/07/30 07:11:32;;;;;;;;;;;18.00;92.70;;;;;;5057310;28;19928;-72
2022/07/30 07:14:02;;;;;;;;;;;18.00;92.70;;;;;;5043059;28;19935;-73
2022/07/30 07:16:33;;;;;;;;;;;18.00;92.80;;;;;;5042480;28;19931;-74
2022/07/30 07:19:12;;;;;;;;;;;18.00;92.70;;;;;;5057975;28;20039;-73
2022/07/30 07:21:38;;;;;;;;;;;18.00;92.70;;;;;;5047986;28;19932;-73
2022/07/30 07:24:06;;;;;;;;;;;18.00;92.70;;;;;;5062472;28;19968;-73
2022/07/30 07:26:53;;;;;;;;;;;18.00;92.70;;;;;;5043429;28;20333;-73
2022/07/30 07:29:20;;;;;;;;;;;18.00;92.70;;;;;;5038681;28;19928;-75
2022/07/30 07:31:47;;;;;;;;;;;18.00;92.60;;;;;;5051121;28;19943;-74
2022/07/30 07:34:14;;;;;;;;;;;18.00;92.90;;;;;;5056198;28;19924;-72
2022/07/30 07:36:41;;;;;;;;;;;18.00;92.50;;;;;;5030424;28;19925;-74
2022/07/30 07:39:09;;;;;;;;;;;18.10;92.50;;;;;;5047101;28;19924;-73
2022/07/30 07:41:39;;;;;;;;;;;18.10;92.40;;;;;;5053569;28;19931;-74
2022/07/30 07:44:07;;;;;;;;;;;18.10;92.40;;;;;;5037000;28;19928;-73
2022/07/30 07:46:35;;;;;;;;;;;18.10;92.20;;;;;;5068237;28;19939;-73
2022/07/30 07:49:03;;;;;;;;;;;18.10;92.20;;;;;;5066943;28;19940;-73
2022/07/30 07:51:37;;;;;;;;;;;18.10;92.10;;;;;;5049967;28;19924;-74
2022/07/30 07:54:06;;;;;;;;;;;18.10;91.80;;;;;;5050404;28;20399;-73
2022/07/30 07:56:34;;;;;;;;;;;18.10;92.00;;;;;;5055985;28;20406;-73
2022/07/30 07:59:01;;;;;;;;;;;18.10;91.80;;;;;;5036928;28;20305;-73
2022/07/30 08:01:30;;;;;;;;;;;18.00;91.70;;;;;;5051234;28;20090;-74
2022/07/30 08:04:23;;;;;;;;;;;18.10;91.70;;;;;;5046917;28;19932;-74
2022/07/30 08:07:22;;;;;;;;;;;18.00;91.70;;;;;;5006440;28;19932;-74
2022/07/30 08:10:21;;;;;;;;;;;18.10;91.70;;;;;;5046829;28;20338;-74
2022/07/30 08:13:04;;;;;;;;;;;18.10;91.60;;;;;;5058176;28;21946;-73
2022/07/30 08:15:49;;;;;;;;;;;18.10;91.60;;;;;;5103986;22;20567;-76
2022/07/30 08:18:37;;;;;;;;;;;18.10;91.00;;;;;;5052649;28;19932;-76
2022/07/30 08:21:18;;;;;;;;;;;18.10;90.80;;;;;;5032271;28;19929;-78
2022/07/30 08:23:45;;;;;;;;;;;18.10;91.10;;;;;;5039620;28;20018;-76
2022/07/30 08:26:11;;;;;;;;;;;18.10;91.00;;;;;;5036509;28;20797;-76
2022/07/30 08:28:38;;;;;;;;;;;18.10;90.90;;;;;;5046628;28;19933;-76
2022/07/30 08:31:07;;;;;;;;;;;18.10;91.10;;;;;;5026268;28;20370;-76
2022/07/30 08:33:34;;;;;;;;;;;18.10;90.90;;;;;;5042360;28;20010;-75
2022/07/30 08:36:04;;;;;;;;;;;18.10;90.50;;;;;;5035643;28;19932;-75
2022/07/30 08:38:32;;;;;;;;;;;18.10;90.50;;;;;;5039872;28;19935;-76
2022/07/30 08:40:59;;;;;;;;;;;18.10;90.10;;;;;;5053032;28;20839;-76
2022/07/30 08:43:26;;;;;;;;;;;18.10;90.00;;;;;;5045721;28;20295;-77
2022/07/30 08:45:56;;;;;;;;;;;18.10;90.30;;;;;;5045007;28;19924;-77
2022/07/30 08:48:42;;;;;;;;;;;18.10;90.10;;;;;;5056193;28;20465;-77
2022/07/30 08:51:10;;;;;;;;;;;18.10;90.10;;;;;;5044612;28;19925;-77
2022/07/30 08:53:37;;;;;;;;;;;18.20;90.00;;;;;;5063104;28;20017;-77
2022/07/30 08:56:04;;;;;;;;;;;18.20;90.10;;;;;;5044164;28;19933;-76
2022/07/30 08:58:33;;;;;;;;;;;18.20;89.50;;;;;;5043184;28;19925;-77
2022/07/30 09:01:00;;;;;;;;;;;18.20;89.70;;;;;;5043159;28;20430;-76
2022/07/30 09:03:29;;;;;;;;;;;18.20;88.90;;;;;;5043478;28;20019;-77
2022/07/30 09:06:00;;;;;;;;;;;18.20;88.60;;;;;;5040229;28;19970;-75
2022/07/30 09:08:28;;;;;;;;;;;18.20;88.90;;;;;;5056428;28;19983;-76
2022/07/30 09:10:56;;;;;;;;;;;18.20;88.30;;;;;;5041005;28;19931;-76
2022/07/30 09:13:23;;;;;;;;;;;18.20;89.20;;;;;;5046928;28;19932;-75
2022/07/30 09:15:50;;;;;;;;;;;18.30;89.60;;;;;;5044727;28;19951;-75
2022/07/30 09:18:26;;;;;;;;;;;18.30;89.40;;;;;;5044019;28;19929;-77
2022/07/30 09:20:55;;;;;;;;;;;18.30;89.40;;;;;;5068696;28;19933;-78
2022/07/30 09:23:22;;;;;;;;;;;18.30;88.20;;;;;;5042463;28;19928;-77
2022/07/30 09:26:08;;;;;;;;;;;18.30;88.20;;;;;;5064043;28;19936;-76
2022/07/30 09:28:41;;;;;;;;;;;18.30;87.90;;;;;;5062791;28;20329;-76
2022/07/30 09:31:14;;;;;;;;;;;18.30;87.70;;;;;;5061129;28;20455;-77
2022/07/30 09:34:00;;;;;;;;;;;18.30;87.60;;;;;;5062948;28;20409;-77
2022/07/30 09:36:45;;;;;;;;;;;18.30;87.50;;;;;;5057096;28;21533;-77
2022/07/30 09:39:34;;;;;;;;;;;18.30;87.10;;;;;;5067126;28;20344;-76
2022/07/30 09:42:26;;;;;;;;;;;18.30;86.70;;;;;;5063028;28;20047;-76
2022/07/30 09:45:05;;;;;;;;;;;18.30;87.10;;;;;;5041563;28;19925;-77
2022/07/30 09:47:33;;;;;;;;;;;18.40;87.20;;;;;;5042314;28;20685;-76
2022/07/30 09:50:04;;;;;;;;;;;18.40;86.80;;;;;;5067801;28;20007;-77
2022/07/30 09:52:31;;;;;;;;;;;18.40;86.80;;;;;;5035836;28;19936;-77
2022/07/30 09:54:59;;;;;;;;;;;18.40;87.20;;;;;;5039568;28;19929;-76
2022/07/30 09:57:29;;;;;;;;;;;18.50;86.90;;;;;;5044645;28;19925;-77
2022/07/30 10:00:16;;;;;;;;;;;18.50;86.70;;;;;;5045389;28;20402;-77
2022/07/30 10:02:42;;;;;;;;;;;18.50;86.50;;;;;;5060413;28;20266;-77
2022/07/30 10:05:13;;;;;;;;;;;18.60;86.80;;;;;;5058431;28;20049;-78
2022/07/30 10:07:46;;;;;;;;;;;18.60;85.80;;;;;;5055410;28;19928;-78
2022/07/30 10:10:13;;;;;;;;;;;18.60;86.10;;;;;;5057557;28;20280;-75
2022/07/30 10:12:42;;;;;;;;;;;18.70;86.30;;;;;;5045963;28;20144;-75
2022/07/30 10:15:10;;;;;;;;;;;18.70;86.50;;;;;;5043687;28;19924;-77
2022/07/30 10:17:38;;;;;;;;;;;18.70;86.20;;;;;;5042310;28;19939;-76
2022/07/30 10:20:22;;;;;;;;;;;18.70;86.10;;;;;;5047491;28;19928;-75
2022/07/30 10:23:16;;;;;;;;;;;18.70;86.10;;;;;;5030094;28;19933;-76
2022/07/30 10:26:02;;;;;;;;;;;18.80;86.50;;;;;;5059348;28;19947;-77
2022/07/30 10:28:49;;;;;;;;;;;18.80;86.70;;;;;;5061192;28;20022;-77
2022/07/30 10:31:16;;;;;;;;;;;18.80;87.00;;;;;;5061714;28;19925;-75
2022/07/30 10:33:43;;;;;;;;;;;18.80;86.70;;;;;;5061518;28;19932;-77
2022/07/30 10:36:10;;;;;;;;;;;18.80;87.00;;;;;;5059119;28;19963;-76
2022/07/30 10:38:39;;;;;;;;;;;18.80;87.40;;;;;;5058296;28;20009;-77
2022/07/30 10:41:08;;;;;;;;;;;18.80;87.80;;;;;;5058625;28;19924;-76
2022/07/30 10:43:53;;;;;;;;;;;18.90;87.80;;;;;;5059362;28;19928;-76
2022/07/30 10:46:26;;;;;;;;;;;18.80;87.80;;;;;;5053270;28;19940;-77
2022/07/30 10:48:54;;;;;;;;;;;18.90;87.50;;;;;;5037520;28;20029;-76
2022/07/30 10:51:21;;;;;;;;;;;18.90;87.30;;;;;;5064770;28;20326;-76
2022/07/30 10:53:48;;;;;;;;;;;19.00;87.10;;;;;;5056889;28;19932;-76
2022/07/30 10:56:17;;;;;;;;;;;19.00;87.20;;;;;;5038728;28;19936;-77
2022/07/30 10:59:04;;;;;;;;;;;19.00;87.40;;;;;;5060717;28;19975;-76
2022/07/30 11:01:49;;;;;;;;;;;19.00;87.40;;;;;;5057494;28;19924;-77
2022/07/30 11:04:22;;;;;;;;;;;19.00;86.90;;;;;;5054981;28;19932;-76
2022/07/30 11:06:49;;;;;;;;;;;19.10;86.70;;;;;;5059506;28;20310;-77
2022/07/30 11:09:31;;;;;;;;;;;19.10;86.50;;;;;;5061693;28;19933;-77
2022/07/30 11:11:58;;;;;;;;;;;19.10;86.50;;;;;;5036582;28;19978;-79
2022/07/30 11:14:49;;;;;;;;;;;19.20;86.90;;;;;;5057824;28;21448;-76
2022/07/30 11:17:17;;;;;;;;;;;19.20;86.70;;;;;;5059440;28;20519;-77
2022/07/30 11:19:59;;;;;;;;;;;19.20;86.80;;;;;;5042289;28;19940;-78
2022/07/30 11:22:30;;;;;;;;;;;19.30;86.70;;;;;;5060648;28;19935;-76
2022/07/30 11:24:57;;;;;;;;;;;19.30;86.80;;;;;;5057202;28;20306;-80
2022/07/30 11:27:34;;;;;;;;;;;19.30;86.10;;;;;;5044448;28;20540;-77
2022/07/30 11:30:03;;;;;;;;;;;19.40;86.10;;;;;;5061461;28;20439;-76
2022/07/30 11:32:31;;;;;;;;;;;19.40;85.90;;;;;;5057378;28;19986;-76
2022/07/30 11:35:20;;;;;;;;;;;19.40;85.60;;;;;;5056038;28;19990;-76
2022/07/30 11:38:02;;;;;;;;;;;19.40;85.70;;;;;;5054171;28;19936;-76
2022/07/30 11:40:29;;;;;;;;;;;19.50;85.60;;;;;;5055230;28;19986;-76
2022/07/30 11:43:11;;;;;;;;;;;19.50;85.50;;;;;;5055953;28;19932;-77
2022/07/30 11:45:38;;;;;;;;;;;19.50;85.60;;;;;;5028187;28;19932;-77
2022/07/30 11:48:09;;;;;;;;;;;19.60;85.00;;;;;;5058887;28;19932;-75
2022/07/30 11:50:36;;;;;;;;;;;19.60;84.70;;;;;;5057281;28;19928;-76
2022/07/30 11:53:05;;;;;;;;;;;19.60;85.20;;;;;;5060886;28;19932;-76
2022/07/30 11:55:33;;;;;;;;;;;19.60;85.20;;;;;;5059828;28;19928;-76
2022/07/30 11:58:00;;;;;;;;;;;19.60;85.20;;;;;;5059461;28;20027;-75
2022/07/30 12:00:33;;;;;;;;;;;19.60;85.20;;;;;;5059924;28;19971;-77
2022/07/30 12:03:00;;;;;;;;;;;19.70;85.60;;;;;;5056483;28;19971;-75
2022/07/30 12:05:27;;;;;;;;;;;19.70;85.70;;;;;;5059839;28;19924;-76
2022/07/30 12:07:58;;;;;;;;;;;19.70;85.70;;;;;;5056211;28;20019;-78
2022/07/30 12:10:26;;;;;;;;;;;19.70;85.20;;;;;;5058105;28;20370;-76
2022/07/30 12:12:53;;;;;;;;;;;19.80;84.70;;;;;;5054458;28;19983;-76
2022/07/30 12:15:30;;;;;;;;;;;19.90;84.10;;;;;;5052341;28;20431;-77
2022/07/30 12:17:56;;;;;;;;;;;20.00;84.10;;;;;;5052730;28;19931;-77
2022/07/30 12:20:24;;;;;;;;;;;20.10;84.10;;;;;;5055545;28;19932;-76
2022/07/30 12:22:53;;;;;;;;;;;20.10;84.10;;;;;;5049325;28;19924;-78
2022/07/30 12:25:22;;;;;;;;;;;20.10;84.00;;;;;;5065193;28;19929;-76
2022/07/30 12:27:51;;;;;;;;;;;20.10;83.80;;;;;;5060904;28;19932;-76
2022/07/30 12:30:18;;;;;;;;;;;20.20;83.40;;;;;;5061174;28;19982;-76
2022/07/30 12:32:45;;;;;;;;;;;20.20;83.80;;;;;;5058652;28;20355;-76
2022/07/30 12:35:12;;;;;;;;;;;20.20;83.20;;;;;;5059333;28;20379;-77
2022/07/30 12:37:39;;;;;;;;;;;20.30;83.60;;;;;;5061016;28;19925;-77
2022/07/30 12:40:10;;;;;;;;;;;20.30;83.60;;;;;;5057582;28;19979;-76
2022/07/30 12:42:37;;;;;;;;;;;20.30;83.90;;;;;;5059439;28;19924;-77
2022/07/30 12:45:06;;;;;;;;;;;20.30;84.20;;;;;;5066977;28;20002;-77
2022/07/30 12:47:34;;;;;;;;;;;20.40;83.80;;;;;;5064141;28;20409;-77
2022/07/30 12:50:05;;;;;;;;;;;20.40;83.60;;;;;;5046559;28;20011;-76
2022/07/30 12:52:33;;;;;;;;;;;20.40;83.10;;;;;;5058734;28;20337;-77
2022/07/30 12:55:01;;;;;;;;;;;20.50;82.10;;;;;;5058175;28;19946;-77
2022/07/30 12:57:28;;;;;;;;;;;20.50;82.30;;;;;;5043638;28;19929;-76
2022/07/30 13:00:02;;;;;;;;;;;20.60;82.70;;;;;;5055802;28;20344;-77
2022/07/30 13:02:35;;;;;;;;;;;20.60;82.30;;;;;;5060275;28;20024;-76
2022/07/30 13:05:02;;;;;;;;;;;20.60;82.40;;;;;;5053373;28;19925;-77
2022/07/30 13:07:30;;;;;;;;;;;20.70;82.70;;;;;;5058907;28;19925;-76
2022/07/30 13:10:07;;;;;;;;;;;20.70;82.60;;;;;;5056481;28;20019;-76
2022/07/30 13:12:34;;;;;;;;;;;20.80;82.70;;;;;;5056651;28;19967;-76
2022/07/30 13:15:01;;;;;;;;;;;20.80;81.80;;;;;;5060282;28;19952;-76
2022/07/30 13:17:28;;;;;;;;;;;20.80;82.10;;;;;;5062356;28;19955;-76
2022/07/30 13:19:56;;;;;;;;;;;20.90;82.00;;;;;;5062735;28;20401;-76
2022/07/30 13:22:23;;;;;;;;;;;20.90;81.90;;;;;;5060223;28;20047;-77
2022/07/30 13:24:50;;;;;;;;;;;21.00;81.70;;;;;;5058343;28;20294;-77
2022/07/30 13:27:17;;;;;;;;;;;21.00;81.80;;;;;;5038934;28;19932;-77
2022/07/30 13:29:43;;;;;;;;;;;21.00;81.80;;;;;;5065356;28;20015;-77
2022/07/30 13:32:10;;;;;;;;;;;21.00;81.50;;;;;;5060621;28;20345;-76
2022/07/30 13:34:37;;;;;;;;;;;21.10;81.40;;;;;;5062078;28;19968;-76
2022/07/30 13:37:05;;;;;;;;;;;21.20;79.80;;;;;;5065802;28;20383;-77
2022/07/30 13:39:32;;;;;;;;;;;21.30;79.10;;;;;;5061261;28;20463;-76
2022/07/30 13:41:59;;;;;;;;;;;21.40;78.90;;;;;;5063010;28;19928;-77
2022/07/30 13:44:26;;;;;;;;;;;21.40;78.30;;;;;;5041829;28;20010;-77
2022/07/30 13:46:53;;;;;;;;;;;21.40;78.90;;;;;;5065519;28;19932;-79
2022/07/30 13:49:20;;;;;;;;;;;21.40;78.40;;;;;;5061849;28;19932;-76
2022/07/30 13:51:47;;;;;;;;;;;21.50;78.10;;;;;;5040686;28;19939;-76
2022/07/30 13:54:15;;;;;;;;;;;21.50;79.10;;;;;;5043766;28;19929;-77
2022/07/30 13:56:42;;;;;;;;;;;21.60;78.10;;;;;;5060927;28;20007;-77
2022/07/30 13:59:10;;;;;;;;;;;21.60;77.80;;;;;;5056928;28;19925;-77
2022/07/30 14:01:37;;;;;;;;;;;21.70;77.80;;;;;;5060975;28;19925;-77
2022/07/30 14:04:05;;;;;;;;;;;21.60;78.30;;;;;;5054555;28;19933;-77
2022/07/30 14:06:32;;;;;;;;;;;21.70;78.50;;;;;;5063524;28;19931;-77
2022/07/30 14:08:59;;;;;;;;;;;21.70;78.40;;;;;;5065395;28;20307;-78
2022/07/30 14:11:27;;;;;;;;;;;21.80;78.60;;;;;;5057051;28;19925;-76
2022/07/30 14:13:54;;;;;;;;;;;21.80;78.60;;;;;;5059325;28;19929;-77
2022/07/30 14:16:21;;;;;;;;;;;21.80;78.90;;;;;;5000843;22;19979;-75
2022/07/30 14:18:48;;;;;;;;;;;21.90;78.90;;;;;;4989307;28;19930;-76
2022/07/30 14:21:15;;;;;;;;;;;21.90;79.00;;;;;;4979598;28;20408;-77
2022/07/30 14:23:41;;;;;;;;;;;21.90;77.90;;;;;;4986979;28;20016;-79
2022/07/30 14:26:08;;;;;;;;;;;22.00;78.60;;;;;;4981677;28;19935;-79
2022/07/30 14:28:36;;;;;;;;;;;22.10;78.30;;;;;;4984055;28;19941;-79
2022/07/30 14:31:03;;;;;;;;;;;22.10;77.80;;;;;;4979953;28;19966;-78
2022/07/30 14:33:30;;;;;;;;;;;22.20;77.80;;;;;;4984143;28;19926;-78
2022/07/30 14:35:57;;;;;;;;;;;22.20;78.00;;;;;;4983843;28;19933;-78
2022/07/30 14:38:24;;;;;;;;;;;22.20;77.90;;;;;;4982500;28;19937;-79
2022/07/30 14:40:50;;;;;;;;;;;22.30;77.10;;;;;;4986719;28;20948;-79